sensor_id;sensor_type;location;lat;lon;timestamp;pressure;altitude;pressure_sealevel;temperature
20848;BMP180;10584;50.854;12.902;2024-03-02T00:01:32;97034.00;;;6.90
20848;BMP180;10584;50.854;12.902;2024-03-02T00:06:54;97037.00;;;6.90
20848;BMP180;10584;50.854;12.902;2024-03-02T00:12:17;97024.00;;;7.00
20848;BMP180;10584;50.854;12.902;2024-03-02T00:17:38;97025.00;;;7.00
20848;BMP180;10584;50.854;12.902;2024-03-02T00:23:08;97031.00;;;7.00
20848;BMP180;10584;50.854;12.902;2024-03-02T00:28:34;97027.00;;;7.00
20848;BMP180;10584;50.854;12.902;2024-03-02T00:34:01;97016.00;;;7.00
20848;BMP180;10584;50.854;12.902;2024-03-02T00:39:27;97025.00;;;7.00
20848;BMP180;10584;50.854;12.902;2024-03-02T00:44:49;97015.00;;;7.00
20848;BMP180;10584;50.854;12.902;2024-03-02T00:50:12;97022.00;;;7.00
20848;BMP180;10584;50.854;12.902;2024-03-02T00:55:46;97024.00;;;7.00
20848;BMP180;10584;50.854;12.902;2024-03-02T01:01:09;97030.00;;;7.00
20848;BMP180;10584;50.854;12.902;2024-03-02T01:06:31;97021.00;;;7.00
20848;BMP180;10584;50.854;12.902;2024-03-02T01:11:53;97025.00;;;7.00
20848;BMP180;10584;50.854;12.902;2024-03-02T01:17:14;97005.00;;;7.00
20848;BMP180;10584;50.854;12.902;2024-03-02T01:22:36;97005.00;;;7.00
20848;BMP180;10584;50.854;12.902;2024-03-02T01:27:59;97015.00;;;7.00
20848;BMP180;10584;50.854;12.902;2024-03-02T01:33:20;97004.00;;;6.90
20848;BMP180;10584;50.854;12.902;2024-03-02T01:38:42;97009.00;;;6.90
20848;BMP180;10584;50.854;12.902;2024-03-02T01:44:04;96999.00;;;6.90
20848;BMP180;10584;50.854;12.902;2024-03-02T01:49:26;97002.00;;;7.00
20848;BMP180;10584;50.854;12.902;2024-03-02T01:54:48;96984.00;;;6.90
20848;BMP180;10584;50.854;12.902;2024-03-02T02:00:10;96998.00;;;6.90
20848;BMP180;10584;50.854;12.902;2024-03-02T02:05:33;96987.00;;;6.90
20848;BMP180;10584;50.854;12.902;2024-03-02T02:10:57;96982.00;;;6.90
20848;BMP180;10584;50.854;12.902;2024-03-02T02:16:18;96986.00;;;6.90
20848;BMP180;10584;50.854;12.902;2024-03-02T02:21:43;96981.00;;;6.90
20848;BMP180;10584;50.854;12.902;2024-03-02T02:27:05;96990.00;;;6.80
20848;BMP180;10584;50.854;12.902;2024-03-02T02:32:26;96980.00;;;6.80
20848;BMP180;10584;50.854;12.902;2024-03-02T02:37:49;96986.00;;;6.80
20848;BMP180;10584;50.854;12.902;2024-03-02T02:43:12;96979.00;;;6.80
20848;BMP180;10584;50.854;12.902;2024-03-02T02:48:33;96989.00;;;6.80
20848;BMP180;10584;50.854;12.902;2024-03-02T02:53:55;96987.00;;;6.70
20848;BMP180;10584;50.854;12.902;2024-03-02T02:59:17;96979.00;;;6.70
20848;BMP180;10584;50.854;12.902;2024-03-02T03:04:40;96987.00;;;6.70
20848;BMP180;10584;50.854;12.902;2024-03-02T03:10:03;96989.00;;;6.70
20848;BMP180;10584;50.854;12.902;2024-03-02T03:15:25;96992.00;;;6.60
20848;BMP180;10584;50.854;12.902;2024-03-02T03:20:47;96974.00;;;6.60
20848;BMP180;10584;50.854;12.902;2024-03-02T03:26:09;96977.00;;;6.60
20848;BMP180;10584;50.854;12.902;2024-03-02T03:31:30;96986.00;;;6.60
20848;BMP180;10584;50.854;12.902;2024-03-02T03:36:52;97006.00;;;6.60
20848;BMP180;10584;50.854;12.902;2024-03-02T03:42:13;96998.00;;;6.60
20848;BMP180;10584;50.854;12.902;2024-03-02T03:47:35;97003.00;;;6.60
20848;BMP180;10584;50.854;12.902;2024-03-02T03:52:57;97006.00;;;6.50
20848;BMP180;10584;50.854;12.902;2024-03-02T03:58:19;97002.00;;;6.50
20848;BMP180;10584;50.854;12.902;2024-03-02T04:03:43;97007.00;;;6.50
20848;BMP180;10584;50.854;12.902;2024-03-02T04:09:05;97016.00;;;6.60
20848;BMP180;10584;50.854;12.902;2024-03-02T04:14:26;97015.00;;;6.60
20848;BMP180;10584;50.854;12.902;2024-03-02T04:19:48;97017.00;;;6.60
20848;BMP180;10584;50.854;12.902;2024-03-02T04:25:12;97016.00;;;6.60
20848;BMP180;10584;50.854;12.902;2024-03-02T04:30:34;97019.00;;;6.60
20848;BMP180;10584;50.854;12.902;2024-03-02T04:35:55;97023.00;;;6.60
20848;BMP180;10584;50.854;12.902;2024-03-02T04:41:17;97032.00;;;6.60
20848;BMP180;10584;50.854;12.902;2024-03-02T04:46:38;97043.00;;;6.60
20848;BMP180;10584;50.854;12.902;2024-03-02T04:52:00;97048.00;;;6.60
20848;BMP180;10584;50.854;12.902;2024-03-02T04:57:22;97054.00;;;6.60
20848;BMP180;10584;50.854;12.902;2024-03-02T05:02:43;97051.00;;;6.70
20848;BMP180;10584;50.854;12.902;2024-03-02T05:08:05;97070.00;;;6.70
20848;BMP180;10584;50.854;12.902;2024-03-02T05:13:28;97070.00;;;6.70
20848;BMP180;10584;50.854;12.902;2024-03-02T05:18:49;97071.00;;;6.70
20848;BMP180;10584;50.854;12.902;2024-03-02T05:24:11;97078.00;;;6.80
20848;BMP180;10584;50.854;12.902;2024-03-02T05:29:33;97078.00;;;6.80
20848;BMP180;10584;50.854;12.902;2024-03-02T05:34:54;97075.00;;;6.80
20848;BMP180;10584;50.854;12.902;2024-03-02T05:40:16;97075.00;;;6.80
20848;BMP180;10584;50.854;12.902;2024-03-02T05:45:40;97085.00;;;6.80
20848;BMP180;10584;50.854;12.902;2024-03-02T05:51:02;97089.00;;;6.80
20848;BMP180;10584;50.854;12.902;2024-03-02T05:56:23;97091.00;;;6.80
20848;BMP180;10584;50.854;12.902;2024-03-02T06:01:48;97097.00;;;6.80
20848;BMP180;10584;50.854;12.902;2024-03-02T06:07:13;97105.00;;;6.90
20848;BMP180;10584;50.854;12.902;2024-03-02T06:12:35;97116.00;;;6.90
20848;BMP180;10584;50.854;12.902;2024-03-02T06:17:57;97113.00;;;6.90
20848;BMP180;10584;50.854;12.902;2024-03-02T06:23:18;97114.00;;;6.90
20848;BMP180;10584;50.854;12.902;2024-03-02T06:28:40;97117.00;;;6.80
20848;BMP180;10584;50.854;12.902;2024-03-02T06:34:02;97121.00;;;6.90
20848;BMP180;10584;50.854;12.902;2024-03-02T06:39:26;97117.00;;;6.90
20848;BMP180;10584;50.854;12.902;2024-03-02T06:44:48;97126.00;;;6.90
20848;BMP180;10584;50.854;12.902;2024-03-02T06:50:10;97138.00;;;6.90
20848;BMP180;10584;50.854;12.902;2024-03-02T06:55:31;97128.00;;;7.00
20848;BMP180;10584;50.854;12.902;2024-03-02T07:00:52;97134.00;;;7.00
20848;BMP180;10584;50.854;12.902;2024-03-02T07:06:14;97124.00;;;7.10
20848;BMP180;10584;50.854;12.902;2024-03-02T07:11:36;97117.00;;;7.10
20848;BMP180;10584;50.854;12.902;2024-03-02T07:16:57;97127.00;;;7.20
20848;BMP180;10584;50.854;12.902;2024-03-02T07:22:20;97131.00;;;7.30
20848;BMP180;10584;50.854;12.902;2024-03-02T07:27:41;97136.00;;;7.30
20848;BMP180;10584;50.854;12.902;2024-03-02T07:33:05;97141.00;;;7.50
20848;BMP180;10584;50.854;12.902;2024-03-02T07:38:28;97138.00;;;7.50
20848;BMP180;10584;50.854;12.902;2024-03-02T07:43:50;97145.00;;;7.60
20848;BMP180;10584;50.854;12.902;2024-03-02T07:49:11;97144.00;;;7.70
20848;BMP180;10584;50.854;12.902;2024-03-02T07:54:33;97142.00;;;7.80
20848;BMP180;10584;50.854;12.902;2024-03-02T07:59:55;97151.00;;;8.00
20848;BMP180;10584;50.854;12.902;2024-03-02T08:05:18;97160.00;;;8.00
20848;BMP180;10584;50.854;12.902;2024-03-02T08:10:41;97153.00;;;8.20
20848;BMP180;10584;50.854;12.902;2024-03-02T08:16:03;97152.00;;;8.20
20848;BMP180;10584;50.854;12.902;2024-03-02T08:21:25;97159.00;;;8.30
20848;BMP180;10584;50.854;12.902;2024-03-02T08:26:47;97158.00;;;8.40
20848;BMP180;10584;50.854;12.902;2024-03-02T08:32:09;97159.00;;;8.40
20848;BMP180;10584;50.854;12.902;2024-03-02T08:37:30;97162.00;;;8.50
20848;BMP180;10584;50.854;12.902;2024-03-02T08:42:52;97161.00;;;8.50
20848;BMP180;10584;50.854;12.902;2024-03-02T08:48:14;97177.00;;;8.50
20848;BMP180;10584;50.854;12.902;2024-03-02T08:53:36;97179.00;;;8.70
20848;BMP180;10584;50.854;12.902;2024-03-02T08:58:58;97186.00;;;8.70
20848;BMP180;10584;50.854;12.902;2024-03-02T09:04:20;97203.00;;;8.80
20848;BMP180;10584;50.854;12.902;2024-03-02T09:09:45;97214.00;;;8.80
20848;BMP180;10584;50.854;12.902;2024-03-02T09:15:07;97211.00;;;8.80
20848;BMP180;10584;50.854;12.902;2024-03-02T09:20:29;97210.00;;;8.80
20848;BMP180;10584;50.854;12.902;2024-03-02T09:25:50;97205.00;;;8.90
20848;BMP180;10584;50.854;12.902;2024-03-02T09:31:12;97209.00;;;8.90
20848;BMP180;10584;50.854;12.902;2024-03-02T09:36:56;97202.00;;;9.00
20848;BMP180;10584;50.854;12.902;2024-03-02T09:42:17;97196.00;;;9.10
20848;BMP180;10584;50.854;12.902;2024-03-02T09:47:41;97200.00;;;9.20
20848;BMP180;10584;50.854;12.902;2024-03-02T09:53:02;97203.00;;;9.30
20848;BMP180;10584;50.854;12.902;2024-03-02T09:58:24;97193.00;;;9.40
20848;BMP180;10584;50.854;12.902;2024-03-02T10:03:46;97189.00;;;9.60
20848;BMP180;10584;50.854;12.902;2024-03-02T10:09:11;97193.00;;;9.80
20848;BMP180;10584;50.854;12.902;2024-03-02T10:14:48;97192.00;;;10.10
20848;BMP180;10584;50.854;12.902;2024-03-02T10:20:27;97192.00;;;10.10
20848;BMP180;10584;50.854;12.902;2024-03-02T10:25:50;97184.00;;;10.40
20848;BMP180;10584;50.854;12.902;2024-03-02T10:31:18;97177.00;;;10.50
20848;BMP180;10584;50.854;12.902;2024-03-02T10:36:44;97181.00;;;10.70
20848;BMP180;10584;50.854;12.902;2024-03-02T10:42:07;97171.00;;;10.80
20848;BMP180;10584;50.854;12.902;2024-03-02T10:47:30;97174.00;;;10.80
20848;BMP180;10584;50.854;12.902;2024-03-02T10:52:53;97172.00;;;11.10
20848;BMP180;10584;50.854;12.902;2024-03-02T10:58:14;97163.00;;;11.50
20848;BMP180;10584;50.854;12.902;2024-03-02T11:03:37;97162.00;;;11.70
20848;BMP180;10584;50.854;12.902;2024-03-02T11:09:01;97160.00;;;12.10
20848;BMP180;10584;50.854;12.902;2024-03-02T11:14:27;97152.00;;;12.40
20848;BMP180;10584;50.854;12.902;2024-03-02T11:19:51;97159.00;;;12.70
20848;BMP180;10584;50.854;12.902;2024-03-02T11:25:27;97157.00;;;12.60
20848;BMP180;10584;50.854;12.902;2024-03-02T11:30:49;97155.00;;;12.60
20848;BMP180;10584;50.854;12.902;2024-03-02T11:36:11;97168.00;;;12.60
20848;BMP180;10584;50.854;12.902;2024-03-02T11:41:34;97165.00;;;12.80
20848;BMP180;10584;50.854;12.902;2024-03-02T11:47:06;97158.00;;;12.60
20848;BMP180;10584;50.854;12.902;2024-03-02T11:52:32;97157.00;;;12.80
20848;BMP180;10584;50.854;12.902;2024-03-02T11:57:55;97156.00;;;12.90
20848;BMP180;10584;50.854;12.902;2024-03-02T12:03:17;97149.00;;;12.70
20848;BMP180;10584;50.854;12.902;2024-03-02T12:08:38;97151.00;;;12.40
20848;BMP180;10584;50.854;12.902;2024-03-02T12:14:00;97141.00;;;12.40
20848;BMP180;10584;50.854;12.902;2024-03-02T12:19:22;97133.00;;;12.50
20848;BMP180;10584;50.854;12.902;2024-03-02T12:24:44;97133.00;;;12.50
20848;BMP180;10584;50.854;12.902;2024-03-02T12:30:10;97130.00;;;12.50
20848;BMP180;10584;50.854;12.902;2024-03-02T12:35:32;97139.00;;;12.70
20848;BMP180;10584;50.854;12.902;2024-03-02T12:40:53;97140.00;;;13.00
20848;BMP180;10584;50.854;12.902;2024-03-02T12:46:15;97128.00;;;13.00
20848;BMP180;10584;50.854;12.902;2024-03-02T12:51:40;97120.00;;;13.10
20848;BMP180;10584;50.854;12.902;2024-03-02T12:57:02;97114.00;;;13.20
20848;BMP180;10584;50.854;12.902;2024-03-02T13:02:28;97108.00;;;13.20
20848;BMP180;10584;50.854;12.902;2024-03-02T13:07:51;97111.00;;;13.20
20848;BMP180;10584;50.854;12.902;2024-03-02T13:13:12;97105.00;;;13.40
20848;BMP180;10584;50.854;12.902;2024-03-02T13:18:34;97097.00;;;13.40
20848;BMP180;10584;50.854;12.902;2024-03-02T13:23:56;97100.00;;;13.50
20848;BMP180;10584;50.854;12.902;2024-03-02T13:29:17;97099.00;;;13.30
20848;BMP180;10584;50.854;12.902;2024-03-02T13:34:39;97101.00;;;13.70
20848;BMP180;10584;50.854;12.902;2024-03-02T13:40:01;97092.00;;;13.90
20848;BMP180;10584;50.854;12.902;2024-03-02T13:45:26;97096.00;;;14.00
20848;BMP180;10584;50.854;12.902;2024-03-02T13:50:48;97090.00;;;14.00
20848;BMP180;10584;50.854;12.902;2024-03-02T13:56:10;97090.00;;;14.10
20848;BMP180;10584;50.854;12.902;2024-03-02T14:01:33;97107.00;;;13.90
20848;BMP180;10584;50.854;12.902;2024-03-02T14:06:55;97094.00;;;13.90
20848;BMP180;10584;50.854;12.902;2024-03-02T14:12:17;97087.00;;;14.10
20848;BMP180;10584;50.854;12.902;2024-03-02T14:17:39;97092.00;;;14.00
20848;BMP180;10584;50.854;12.902;2024-03-02T14:23:01;97083.00;;;13.90
20848;BMP180;10584;50.854;12.902;2024-03-02T14:28:24;97075.00;;;14.00
20848;BMP180;10584;50.854;12.902;2024-03-02T14:34:05;97073.00;;;14.00
20848;BMP180;10584;50.854;12.902;2024-03-02T14:39:27;97070.00;;;13.90
20848;BMP180;10584;50.854;12.902;2024-03-02T14:44:49;97075.00;;;13.50
20848;BMP180;10584;50.854;12.902;2024-03-02T14:50:12;97071.00;;;13.60
20848;BMP180;10584;50.854;12.902;2024-03-02T14:55:34;97063.00;;;13.50
20848;BMP180;10584;50.854;12.902;2024-03-02T15:00:55;97064.00;;;13.50
20848;BMP180;10584;50.854;12.902;2024-03-02T15:06:17;97058.00;;;13.50
20848;BMP180;10584;50.854;12.902;2024-03-02T15:11:39;97054.00;;;13.50
20848;BMP180;10584;50.854;12.902;2024-03-02T15:17:01;97062.00;;;13.10
20848;BMP180;10584;50.854;12.902;2024-03-02T15:22:22;97060.00;;;13.00
20848;BMP180;10584;50.854;12.902;2024-03-02T15:27:44;97060.00;;;12.50
20848;BMP180;10584;50.854;12.902;2024-03-02T15:33:06;97058.00;;;12.40
20848;BMP180;10584;50.854;12.902;2024-03-02T15:38:28;97057.00;;;12.10
20848;BMP180;10584;50.854;12.902;2024-03-02T15:43:55;97065.00;;;12.10
20848;BMP180;10584;50.854;12.902;2024-03-02T15:49:17;97061.00;;;11.80
20848;BMP180;10584;50.854;12.902;2024-03-02T15:54:42;97061.00;;;11.70
20848;BMP180;10584;50.854;12.902;2024-03-02T16:00:05;97061.00;;;11.40
20848;BMP180;10584;50.854;12.902;2024-03-02T16:05:36;97059.00;;;11.10
20848;BMP180;10584;50.854;12.902;2024-03-02T16:10:58;97057.00;;;11.00
20848;BMP180;10584;50.854;12.902;2024-03-02T16:16:22;97054.00;;;10.90
20848;BMP180;10584;50.854;12.902;2024-03-02T16:21:44;97057.00;;;10.80
20848;BMP180;10584;50.854;12.902;2024-03-02T16:27:05;97059.00;;;10.70
20848;BMP180;10584;50.854;12.902;2024-03-02T16:32:27;97065.00;;;10.50
20848;BMP180;10584;50.854;12.902;2024-03-02T16:37:49;97059.00;;;10.20
20848;BMP180;10584;50.854;12.902;2024-03-02T16:43:10;97070.00;;;10.20
20848;BMP180;10584;50.854;12.902;2024-03-02T16:48:32;97069.00;;;9.90
20848;BMP180;10584;50.854;12.902;2024-03-02T16:53:54;97070.00;;;9.80
20848;BMP180;10584;50.854;12.902;2024-03-02T16:59:16;97076.00;;;9.90
20848;BMP180;10584;50.854;12.902;2024-03-02T17:04:38;97073.00;;;9.70
20848;BMP180;10584;50.854;12.902;2024-03-02T17:10:00;97076.00;;;9.60
20848;BMP180;10584;50.854;12.902;2024-03-02T17:15:22;97083.00;;;9.50
20848;BMP180;10584;50.854;12.902;2024-03-02T17:20:44;97082.00;;;9.50
20848;BMP180;10584;50.854;12.902;2024-03-02T17:26:05;97081.00;;;9.30
20848;BMP180;10584;50.854;12.902;2024-03-02T17:31:27;97101.00;;;9.40
20848;BMP180;10584;50.854;12.902;2024-03-02T17:36:51;97109.00;;;9.30
20848;BMP180;10584;50.854;12.902;2024-03-02T17:42:13;97109.00;;;9.30
20848;BMP180;10584;50.854;12.902;2024-03-02T17:47:34;97109.00;;;9.10
20848;BMP180;10584;50.854;12.902;2024-03-02T17:52:56;97110.00;;;8.90
20848;BMP180;10584;50.854;12.902;2024-03-02T17:58:18;97105.00;;;8.90
20848;BMP180;10584;50.854;12.902;2024-03-02T18:03:42;97107.00;;;8.90
20848;BMP180;10584;50.854;12.902;2024-03-02T18:09:04;97103.00;;;8.90
20848;BMP180;10584;50.854;12.902;2024-03-02T18:14:26;97108.00;;;8.90
20848;BMP180;10584;50.854;12.902;2024-03-02T18:19:52;97113.00;;;8.80
20848;BMP180;10584;50.854;12.902;2024-03-02T18:25:14;97108.00;;;8.70
20848;BMP180;10584;50.854;12.902;2024-03-02T18:30:36;97103.00;;;8.70
20848;BMP180;10584;50.854;12.902;2024-03-02T18:35:58;97099.00;;;8.70
20848;BMP180;10584;50.854;12.902;2024-03-02T18:41:20;97094.00;;;8.60
20848;BMP180;10584;50.854;12.902;2024-03-02T18:46:41;97088.00;;;8.60
20848;BMP180;10584;50.854;12.902;2024-03-02T18:52:05;97096.00;;;8.60
20848;BMP180;10584;50.854;12.902;2024-03-02T18:57:27;97095.00;;;8.50
20848;BMP180;10584;50.854;12.902;2024-03-02T19:02:48;97090.00;;;8.60
20848;BMP180;10584;50.854;12.902;2024-03-02T19:08:10;97095.00;;;8.40
20848;BMP180;10584;50.854;12.902;2024-03-02T19:13:35;97084.00;;;8.30
20848;BMP180;10584;50.854;12.902;2024-03-02T19:18:57;97089.00;;;8.50
20848;BMP180;10584;50.854;12.902;2024-03-02T19:24:19;97089.00;;;8.40
20848;BMP180;10584;50.854;12.902;2024-03-02T19:29:41;97087.00;;;8.30
20848;BMP180;10584;50.854;12.902;2024-03-02T19:35:03;97081.00;;;8.20
20848;BMP180;10584;50.854;12.902;2024-03-02T19:40:24;97081.00;;;8.10
20848;BMP180;10584;50.854;12.902;2024-03-02T19:45:47;97067.00;;;8.00
20848;BMP180;10584;50.854;12.902;2024-03-02T19:51:09;97057.00;;;7.90
20848;BMP180;10584;50.854;12.902;2024-03-02T19:56:31;97054.00;;;7.80
20848;BMP180;10584;50.854;12.902;2024-03-02T20:01:54;97050.00;;;7.60
20848;BMP180;10584;50.854;12.902;2024-03-02T20:07:16;97050.00;;;7.60
20848;BMP180;10584;50.854;12.902;2024-03-02T20:12:38;97038.00;;;7.50
20848;BMP180;10584;50.854;12.902;2024-03-02T20:18:00;97039.00;;;7.40
20848;BMP180;10584;50.854;12.902;2024-03-02T20:23:22;97035.00;;;7.30
20848;BMP180;10584;50.854;12.902;2024-03-02T20:28:44;97025.00;;;7.20
20848;BMP180;10584;50.854;12.902;2024-03-02T20:34:10;97017.00;;;7.10
20848;BMP180;10584;50.854;12.902;2024-03-02T20:39:32;97018.00;;;7.00
20848;BMP180;10584;50.854;12.902;2024-03-02T20:44:54;97016.00;;;6.90
20848;BMP180;10584;50.854;12.902;2024-03-02T20:50:16;97007.00;;;6.90
20848;BMP180;10584;50.854;12.902;2024-03-02T20:55:37;97003.00;;;6.80
20848;BMP180;10584;50.854;12.902;2024-03-02T21:00:59;96999.00;;;6.80
20848;BMP180;10584;50.854;12.902;2024-03-02T21:06:21;97006.00;;;6.70
20848;BMP180;10584;50.854;12.902;2024-03-02T21:11:42;96979.00;;;6.70
20848;BMP180;10584;50.854;12.902;2024-03-02T21:17:05;96973.00;;;6.60
20848;BMP180;10584;50.854;12.902;2024-03-02T21:22:27;96974.00;;;6.60
20848;BMP180;10584;50.854;12.902;2024-03-02T21:27:50;96972.00;;;6.60
20848;BMP180;10584;50.854;12.902;2024-03-02T21:33:11;96973.00;;;6.50
20848;BMP180;10584;50.854;12.902;2024-03-02T21:38:33;96967.00;;;6.50
20848;BMP180;10584;50.854;12.902;2024-03-02T21:43:55;96976.00;;;6.50
20848;BMP180;10584;50.854;12.902;2024-03-02T21:49:16;96972.00;;;6.40
20848;BMP180;10584;50.854;12.902;2024-03-02T21:54:39;96967.00;;;6.40
20848;BMP180;10584;50.854;12.902;2024-03-02T22:00:01;96957.00;;;6.30
20848;BMP180;10584;50.854;12.902;2024-03-02T22:05:32;96951.00;;;6.20
20848;BMP180;10584;50.854;12.902;2024-03-02T22:10:58;96948.00;;;6.10
20848;BMP180;10584;50.854;12.902;2024-03-02T22:16:20;96948.00;;;6.00
20848;BMP180;10584;50.854;12.902;2024-03-02T22:21:41;96937.00;;;6.00
20848;BMP180;10584;50.854;12.902;2024-03-02T22:27:03;96947.00;;;5.90
20848;BMP180;10584;50.854;12.902;2024-03-02T22:32:25;96938.00;;;5.70
20848;BMP180;10584;50.854;12.902;2024-03-02T22:37:47;96935.00;;;5.70
20848;BMP180;10584;50.854;12.902;2024-03-02T22:43:09;96936.00;;;5.60
20848;BMP180;10584;50.854;12.902;2024-03-02T22:48:31;96938.00;;;5.50
20848;BMP180;10584;50.854;12.902;2024-03-02T22:53:53;96938.00;;;5.40
20848;BMP180;10584;50.854;12.902;2024-03-02T22:59:15;96945.00;;;5.40
20848;BMP180;10584;50.854;12.902;2024-03-02T23:04:36;96937.00;;;5.40
20848;BMP180;10584;50.854;12.902;2024-03-02T23:09:58;96935.00;;;5.30
20848;BMP180;10584;50.854;12.902;2024-03-02T23:15:19;96940.00;;;5.30
20848;BMP180;10584;50.854;12.902;2024-03-02T23:20:41;96935.00;;;5.20
20848;BMP180;10584;50.854;12.902;2024-03-02T23:26:03;96921.00;;;5.10
20848;BMP180;10584;50.854;12.902;2024-03-02T23:31:26;96928.00;;;5.00
20848;BMP180;10584;50.854;12.902;2024-03-02T23:36:48;96926.00;;;4.90
20848;BMP180;10584;50.854;12.902;2024-03-02T23:42:10;96914.00;;;4.80
20848;BMP180;10584;50.854;12.902;2024-03-02T23:47:32;96894.00;;;4.60
20848;BMP180;10584;50.854;12.902;2024-03-02T23:52:53;96908.00;;;4.60
20848;BMP180;10584;50.854;12.902;2024-03-02T23:58:15;96903.00;;;4.40
